This is the latest recevied weather packets stored in our database for station/object OH2NJR. If no packets are shown the sender has not sent any weather packets the latest 10 day(s).
| Time | Temp. | Humidity | Pressure | Rain* | Wind** | Luminosity | Snow |
|---|---|---|---|---|---|---|---|
| 1777896273 | 8.33° C | 88% | 1002.7 hPa | 0.76 mm | - | - | - |
| 1777895148 | 8.33° C | 89% | 1002.8 hPa | 0.76 mm | - | - | - |
| 1777893993 | 8.33° C | 85% | 1003 hPa | 1.02 mm | - | - | - |
| 1777892948 | 8.33° C | 87% | 1003.2 hPa | 0.76 mm | - | - | - |
| 1777892943 | 8.33° C | 87% | 1003.2 hPa | 0.76 mm | - | - | - |
| 1777891928 | 8.33° C | 86% | 1003.2 hPa | 0.51 mm | - | - | - |
| 1777890923 | 7.78° C | 86% | 1003.4 hPa | 0.51 mm | - | - | - |
| 1777889913 | 7.22° C | 84% | 1003.7 hPa | 0.51 mm | - | - | - |
| 1777888793 | 7.22° C | 81% | 1004 hPa | 0.25 mm | - | - | - |
| 1777887723 | 7.22° C | 79% | 1004.2 hPa | 0 mm | - | - | - |
| 1777886718 | 7.78° C | 74% | 1004.1 hPa | 0 mm | - | - | - |
| 1777885561 | 8.89° C | 67% | 1003.9 hPa | 0 mm | - | - | - |
| 1777884363 | 9.44° C | 54% | 1004.4 hPa | 0 mm | - | - | - |
| 1777883361 | 9.44° C | - | - | - | - | - | - |
| 1777883358 | 9.44° C | 52% | 1004.3 hPa | 0 mm | - | - | - |
| 1777882278 | 10° C | 49% | 1004.2 hPa | 0 mm | - | - | - |
| 1777881178 | 10° C | 50% | 1004 hPa | 0 mm | - | - | - |
| 1777880083 | 10° C | 48% | 1004.2 hPa | 0 mm | - | - | - |
| 1777879063 | 10.56° C | 46% | 1004.2 hPa | 0 mm | - | - | - |
| 1777877916 | 10.56° C | 49% | 1004.5 hPa | 0 mm | - | - | - |
| 1777876883 | 10.56° C | 48% | 1004.7 hPa | 0 mm | - | - | - |
| 1777875888 | 11.11° C | 48% | 1004.9 hPa | 0 mm | - | - | - |
| 1777874783 | 11.67° C | 46% | 1004.9 hPa | 0 mm | - | - | - |
| 1777873723 | 11.67° C | 44% | 1005.1 hPa | 0 mm | - | - | - |
| 1777872668 | 10.56° C | 45% | 1005.1 hPa | 0 mm | - | - | - |
* Rain latest hour (hover to see other rain measurements)
** Current wind speed in m/s (hover to see current wind gust speed)